sensor_id;sensor_type;location;lat;lon;timestamp;P1;durP1;ratioP1;P2;durP2;ratioP2
7179;SDS011;3631;42.152;24.756;2024-01-16T00:00:56;84.03;;;36.40;;
7179;SDS011;3631;42.152;24.756;2024-01-16T00:03:25;84.77;;;37.87;;
7179;SDS011;3631;42.152;24.756;2024-01-16T00:05:52;79.03;;;37.33;;
7179;SDS011;3631;42.152;24.756;2024-01-16T00:08:18;75.83;;;35.23;;
7179;SDS011;3631;42.152;24.756;2024-01-16T00:10:45;76.90;;;37.07;;
7179;SDS011;3631;42.152;24.756;2024-01-16T00:13:12;77.50;;;36.63;;
7179;SDS011;3631;42.152;24.756;2024-01-16T00:15:39;84.63;;;37.20;;
7179;SDS011;3631;42.152;24.756;2024-01-16T00:18:06;84.07;;;38.17;;
7179;SDS011;3631;42.152;24.756;2024-01-16T00:20:35;82.13;;;38.33;;
7179;SDS011;3631;42.152;24.756;2024-01-16T00:23:02;84.90;;;38.47;;
7179;SDS011;3631;42.152;24.756;2024-01-16T00:25:29;89.00;;;39.17;;
7179;SDS011;3631;42.152;24.756;2024-01-16T00:27:56;80.37;;;37.13;;
7179;SDS011;3631;42.152;24.756;2024-01-16T00:30:23;81.53;;;36.97;;
7179;SDS011;3631;42.152;24.756;2024-01-16T00:32:50;81.07;;;37.80;;
7179;SDS011;3631;42.152;24.756;2024-01-16T00:35:17;84.90;;;39.37;;
7179;SDS011;3631;42.152;24.756;2024-01-16T00:37:45;87.37;;;40.87;;
7179;SDS011;3631;42.152;24.756;2024-01-16T00:40:12;87.53;;;40.57;;
7179;SDS011;3631;42.152;24.756;2024-01-16T00:42:39;84.03;;;38.83;;
7179;SDS011;3631;42.152;24.756;2024-01-16T00:45:06;87.93;;;39.70;;
7179;SDS011;3631;42.152;24.756;2024-01-16T00:47:33;81.93;;;38.87;;
7179;SDS011;3631;42.152;24.756;2024-01-16T00:50:00;83.43;;;37.73;;
7179;SDS011;3631;42.152;24.756;2024-01-16T00:52:27;81.47;;;38.27;;
7179;SDS011;3631;42.152;24.756;2024-01-16T00:54:56;80.80;;;38.03;;
7179;SDS011;3631;42.152;24.756;2024-01-16T00:57:22;81.90;;;37.53;;
7179;SDS011;3631;42.152;24.756;2024-01-16T00:59:49;80.10;;;37.63;;
7179;SDS011;3631;42.152;24.756;2024-01-16T01:02:17;84.10;;;38.97;;
7179;SDS011;3631;42.152;24.756;2024-01-16T01:04:43;85.37;;;38.53;;
7179;SDS011;3631;42.152;24.756;2024-01-16T01:07:12;84.00;;;40.33;;
7179;SDS011;3631;42.152;24.756;2024-01-16T01:09:40;83.63;;;38.53;;
7179;SDS011;3631;42.152;24.756;2024-01-16T01:12:08;88.87;;;40.93;;
7179;SDS011;3631;42.152;24.756;2024-01-16T01:14:35;88.97;;;41.57;;
7179;SDS011;3631;42.152;24.756;2024-01-16T01:17:02;92.30;;;40.63;;
7179;SDS011;3631;42.152;24.756;2024-01-16T01:19:30;85.10;;;40.30;;
7179;SDS011;3631;42.152;24.756;2024-01-16T01:21:57;85.07;;;39.80;;
7179;SDS011;3631;42.152;24.756;2024-01-16T01:24:24;82.93;;;39.63;;
7179;SDS011;3631;42.152;24.756;2024-01-16T01:26:51;82.27;;;39.33;;
7179;SDS011;3631;42.152;24.756;2024-01-16T01:29:19;81.50;;;37.60;;
7179;SDS011;3631;42.152;24.756;2024-01-16T01:31:46;83.30;;;38.83;;
7179;SDS011;3631;42.152;24.756;2024-01-16T01:34:14;83.30;;;36.93;;
7179;SDS011;3631;42.152;24.756;2024-01-16T01:36:41;81.83;;;38.30;;
7179;SDS011;3631;42.152;24.756;2024-01-16T01:39:08;77.93;;;36.90;;
7179;SDS011;3631;42.152;24.756;2024-01-16T01:41:37;78.07;;;35.70;;
7179;SDS011;3631;42.152;24.756;2024-01-16T01:44:04;71.43;;;34.97;;
7179;SDS011;3631;42.152;24.756;2024-01-16T01:46:33;73.90;;;34.80;;
7179;SDS011;3631;42.152;24.756;2024-01-16T01:49:02;80.50;;;35.90;;
7179;SDS011;3631;42.152;24.756;2024-01-16T01:51:29;76.50;;;35.60;;
7179;SDS011;3631;42.152;24.756;2024-01-16T01:53:56;75.00;;;36.43;;
7179;SDS011;3631;42.152;24.756;2024-01-16T01:56:24;83.93;;;36.53;;
7179;SDS011;3631;42.152;24.756;2024-01-16T01:58:53;82.43;;;36.50;;
7179;SDS011;3631;42.152;24.756;2024-01-16T02:01:20;79.40;;;36.33;;
7179;SDS011;3631;42.152;24.756;2024-01-16T02:03:50;81.83;;;36.47;;
7179;SDS011;3631;42.152;24.756;2024-01-16T02:06:18;77.83;;;34.80;;
7179;SDS011;3631;42.152;24.756;2024-01-16T02:08:45;75.20;;;34.30;;
7179;SDS011;3631;42.152;24.756;2024-01-16T02:11:12;73.43;;;35.83;;
7179;SDS011;3631;42.152;24.756;2024-01-16T02:13:40;75.13;;;35.30;;
7179;SDS011;3631;42.152;24.756;2024-01-16T02:16:16;84.03;;;36.13;;
7179;SDS011;3631;42.152;24.756;2024-01-16T02:18:44;80.87;;;36.13;;
7179;SDS011;3631;42.152;24.756;2024-01-16T02:21:12;77.70;;;35.63;;
7179;SDS011;3631;42.152;24.756;2024-01-16T02:23:45;74.90;;;35.17;;
7179;SDS011;3631;42.152;24.756;2024-01-16T02:26:12;76.30;;;37.00;;
7179;SDS011;3631;42.152;24.756;2024-01-16T02:28:40;77.20;;;37.30;;
7179;SDS011;3631;42.152;24.756;2024-01-16T02:31:07;77.40;;;35.83;;
7179;SDS011;3631;42.152;24.756;2024-01-16T02:33:34;74.60;;;35.33;;
7179;SDS011;3631;42.152;24.756;2024-01-16T02:36:01;68.87;;;34.03;;
7179;SDS011;3631;42.152;24.756;2024-01-16T02:38:28;74.60;;;35.63;;
7179;SDS011;3631;42.152;24.756;2024-01-16T02:40:56;75.23;;;35.80;;
7179;SDS011;3631;42.152;24.756;2024-01-16T02:43:23;71.30;;;35.67;;
7179;SDS011;3631;42.152;24.756;2024-01-16T02:45:51;74.00;;;35.03;;
7179;SDS011;3631;42.152;24.756;2024-01-16T02:48:18;72.53;;;34.63;;
7179;SDS011;3631;42.152;24.756;2024-01-16T02:50:45;75.67;;;35.43;;
7179;SDS011;3631;42.152;24.756;2024-01-16T02:53:13;71.60;;;34.90;;
7179;SDS011;3631;42.152;24.756;2024-01-16T02:55:40;67.37;;;33.20;;
7179;SDS011;3631;42.152;24.756;2024-01-16T02:58:08;66.43;;;32.33;;
7179;SDS011;3631;42.152;24.756;2024-01-16T03:00:35;68.50;;;33.73;;
7179;SDS011;3631;42.152;24.756;2024-01-16T03:03:03;67.47;;;32.57;;
7179;SDS011;3631;42.152;24.756;2024-01-16T03:05:30;64.83;;;32.67;;
7179;SDS011;3631;42.152;24.756;2024-01-16T03:07:56;72.43;;;34.53;;
7179;SDS011;3631;42.152;24.756;2024-01-16T03:10:25;67.83;;;32.87;;
7179;SDS011;3631;42.152;24.756;2024-01-16T03:12:51;68.73;;;31.83;;
7179;SDS011;3631;42.152;24.756;2024-01-16T03:15:20;68.33;;;32.27;;
7179;SDS011;3631;42.152;24.756;2024-01-16T03:17:47;63.00;;;31.97;;
7179;SDS011;3631;42.152;24.756;2024-01-16T03:20:14;69.23;;;33.27;;
7179;SDS011;3631;42.152;24.756;2024-01-16T03:22:41;69.83;;;33.50;;
7179;SDS011;3631;42.152;24.756;2024-01-16T03:25:09;64.57;;;32.47;;
7179;SDS011;3631;42.152;24.756;2024-01-16T03:27:37;74.50;;;34.50;;
7179;SDS011;3631;42.152;24.756;2024-01-16T03:30:05;68.70;;;33.53;;
7179;SDS011;3631;42.152;24.756;2024-01-16T03:32:34;76.30;;;35.53;;
7179;SDS011;3631;42.152;24.756;2024-01-16T03:35:01;78.03;;;36.17;;
7179;SDS011;3631;42.152;24.756;2024-01-16T03:37:28;73.67;;;35.10;;
7179;SDS011;3631;42.152;24.756;2024-01-16T03:39:56;72.07;;;34.87;;
7179;SDS011;3631;42.152;24.756;2024-01-16T03:42:23;76.63;;;34.97;;
7179;SDS011;3631;42.152;24.756;2024-01-16T03:44:50;73.17;;;34.07;;
7179;SDS011;3631;42.152;24.756;2024-01-16T03:47:17;71.80;;;33.83;;
7179;SDS011;3631;42.152;24.756;2024-01-16T03:49:45;63.73;;;33.63;;
7179;SDS011;3631;42.152;24.756;2024-01-16T03:52:12;81.80;;;35.00;;
7179;SDS011;3631;42.152;24.756;2024-01-16T03:54:39;74.87;;;34.87;;
7179;SDS011;3631;42.152;24.756;2024-01-16T03:57:06;68.80;;;34.10;;
7179;SDS011;3631;42.152;24.756;2024-01-16T03:59:36;77.07;;;35.13;;
7179;SDS011;3631;42.152;24.756;2024-01-16T04:02:03;76.40;;;34.57;;
7179;SDS011;3631;42.152;24.756;2024-01-16T04:04:30;78.13;;;36.10;;
7179;SDS011;3631;42.152;24.756;2024-01-16T04:06:59;80.70;;;37.10;;
7179;SDS011;3631;42.152;24.756;2024-01-16T04:09:26;79.20;;;38.37;;
7179;SDS011;3631;42.152;24.756;2024-01-16T04:11:53;79.50;;;36.60;;
7179;SDS011;3631;42.152;24.756;2024-01-16T04:14:20;83.53;;;39.27;;
7179;SDS011;3631;42.152;24.756;2024-01-16T04:16:47;76.83;;;38.47;;
7179;SDS011;3631;42.152;24.756;2024-01-16T04:19:14;82.33;;;38.87;;
7179;SDS011;3631;42.152;24.756;2024-01-16T04:21:40;80.40;;;39.13;;
7179;SDS011;3631;42.152;24.756;2024-01-16T04:24:09;88.47;;;38.40;;
7179;SDS011;3631;42.152;24.756;2024-01-16T04:26:36;86.73;;;38.87;;
7179;SDS011;3631;42.152;24.756;2024-01-16T04:29:04;80.67;;;37.70;;
7179;SDS011;3631;42.152;24.756;2024-01-16T04:31:31;75.40;;;36.93;;
7179;SDS011;3631;42.152;24.756;2024-01-16T04:33:58;73.93;;;35.57;;
7179;SDS011;3631;42.152;24.756;2024-01-16T04:36:25;72.30;;;34.53;;
7179;SDS011;3631;42.152;24.756;2024-01-16T04:38:52;66.57;;;33.70;;
7179;SDS011;3631;42.152;24.756;2024-01-16T04:41:20;67.10;;;33.33;;
7179;SDS011;3631;42.152;24.756;2024-01-16T04:43:47;62.43;;;31.57;;
7179;SDS011;3631;42.152;24.756;2024-01-16T04:46:15;67.80;;;32.03;;
7179;SDS011;3631;42.152;24.756;2024-01-16T04:48:42;62.60;;;32.20;;
7179;SDS011;3631;42.152;24.756;2024-01-16T04:51:11;61.80;;;32.10;;
7179;SDS011;3631;42.152;24.756;2024-01-16T04:53:38;64.83;;;32.10;;
7179;SDS011;3631;42.152;24.756;2024-01-16T04:56:05;68.20;;;33.07;;
7179;SDS011;3631;42.152;24.756;2024-01-16T04:58:34;69.97;;;32.13;;
7179;SDS011;3631;42.152;24.756;2024-01-16T05:01:00;59.67;;;31.43;;
7179;SDS011;3631;42.152;24.756;2024-01-16T05:03:29;62.20;;;31.03;;
7179;SDS011;3631;42.152;24.756;2024-01-16T05:05:56;57.23;;;30.20;;
7179;SDS011;3631;42.152;24.756;2024-01-16T05:08:23;56.27;;;29.33;;
7179;SDS011;3631;42.152;24.756;2024-01-16T05:10:50;60.03;;;29.53;;
7179;SDS011;3631;42.152;24.756;2024-01-16T05:13:17;63.27;;;30.43;;
7179;SDS011;3631;42.152;24.756;2024-01-16T05:15:45;59.63;;;28.60;;
7179;SDS011;3631;42.152;24.756;2024-01-16T05:18:12;49.63;;;27.37;;
7179;SDS011;3631;42.152;24.756;2024-01-16T05:20:39;53.67;;;26.27;;
7179;SDS011;3631;42.152;24.756;2024-01-16T05:23:06;47.47;;;25.67;;
7179;SDS011;3631;42.152;24.756;2024-01-16T05:25:33;50.57;;;28.03;;
7179;SDS011;3631;42.152;24.756;2024-01-16T05:28:00;53.67;;;25.70;;
7179;SDS011;3631;42.152;24.756;2024-01-16T05:30:27;50.70;;;25.27;;
7179;SDS011;3631;42.152;24.756;2024-01-16T05:32:55;51.80;;;24.03;;
7179;SDS011;3631;42.152;24.756;2024-01-16T05:35:26;45.83;;;23.77;;
7179;SDS011;3631;42.152;24.756;2024-01-16T05:37:52;54.10;;;25.00;;
7179;SDS011;3631;42.152;24.756;2024-01-16T05:40:20;51.03;;;24.47;;
7179;SDS011;3631;42.152;24.756;2024-01-16T05:42:48;48.33;;;24.17;;
7179;SDS011;3631;42.152;24.756;2024-01-16T05:45:15;53.27;;;24.87;;
7179;SDS011;3631;42.152;24.756;2024-01-16T05:47:42;41.47;;;23.27;;
7179;SDS011;3631;42.152;24.756;2024-01-16T05:50:10;49.97;;;23.37;;
7179;SDS011;3631;42.152;24.756;2024-01-16T05:52:37;39.67;;;21.57;;
7179;SDS011;3631;42.152;24.756;2024-01-16T05:55:06;49.43;;;23.50;;
7179;SDS011;3631;42.152;24.756;2024-01-16T05:57:33;41.37;;;21.63;;
7179;SDS011;3631;42.152;24.756;2024-01-16T06:00:00;40.33;;;22.00;;
7179;SDS011;3631;42.152;24.756;2024-01-16T06:02:28;44.83;;;21.57;;
7179;SDS011;3631;42.152;24.756;2024-01-16T06:04:55;40.63;;;19.70;;
7179;SDS011;3631;42.152;24.756;2024-01-16T06:07:23;44.07;;;20.77;;
7179;SDS011;3631;42.152;24.756;2024-01-16T06:09:51;34.77;;;18.27;;
7179;SDS011;3631;42.152;24.756;2024-01-16T06:12:18;37.10;;;18.07;;
7179;SDS011;3631;42.152;24.756;2024-01-16T06:14:44;40.13;;;18.93;;
7179;SDS011;3631;42.152;24.756;2024-01-16T06:17:11;33.43;;;17.80;;
7179;SDS011;3631;42.152;24.756;2024-01-16T06:19:38;36.90;;;18.67;;
7179;SDS011;3631;42.152;24.756;2024-01-16T06:22:05;35.20;;;17.83;;
7179;SDS011;3631;42.152;24.756;2024-01-16T06:24:35;33.17;;;17.00;;
7179;SDS011;3631;42.152;24.756;2024-01-16T06:27:04;31.60;;;15.67;;
7179;SDS011;3631;42.152;24.756;2024-01-16T06:29:31;29.20;;;16.43;;
7179;SDS011;3631;42.152;24.756;2024-01-16T06:31:58;40.83;;;17.40;;
7179;SDS011;3631;42.152;24.756;2024-01-16T06:34:25;34.03;;;16.83;;
7179;SDS011;3631;42.152;24.756;2024-01-16T06:36:53;26.53;;;15.43;;
7179;SDS011;3631;42.152;24.756;2024-01-16T06:39:20;23.97;;;14.67;;
7179;SDS011;3631;42.152;24.756;2024-01-16T06:41:48;28.67;;;14.37;;
7179;SDS011;3631;42.152;24.756;2024-01-16T06:44:15;21.47;;;13.70;;
7179;SDS011;3631;42.152;24.756;2024-01-16T06:46:42;20.07;;;11.73;;
7179;SDS011;3631;42.152;24.756;2024-01-16T06:49:09;17.57;;;11.13;;
7179;SDS011;3631;42.152;24.756;2024-01-16T06:51:36;18.07;;;10.80;;
7179;SDS011;3631;42.152;24.756;2024-01-16T06:54:03;16.53;;;9.80;;
7179;SDS011;3631;42.152;24.756;2024-01-16T06:56:30;14.90;;;9.13;;
7179;SDS011;3631;42.152;24.756;2024-01-16T06:58:59;12.40;;;8.77;;
7179;SDS011;3631;42.152;24.756;2024-01-16T07:01:26;13.80;;;8.60;;
7179;SDS011;3631;42.152;24.756;2024-01-16T07:03:53;9.27;;;7.20;;
7179;SDS011;3631;42.152;24.756;2024-01-16T07:06:20;10.00;;;6.73;;
7179;SDS011;3631;42.152;24.756;2024-01-16T07:08:47;12.10;;;7.23;;
7179;SDS011;3631;42.152;24.756;2024-01-16T07:11:13;9.83;;;7.33;;
7179;SDS011;3631;42.152;24.756;2024-01-16T07:13:40;8.27;;;6.53;;
7179;SDS011;3631;42.152;24.756;2024-01-16T07:16:10;9.30;;;6.60;;
7179;SDS011;3631;42.152;24.756;2024-01-16T07:18:37;8.77;;;6.13;;
7179;SDS011;3631;42.152;24.756;2024-01-16T07:21:15;11.00;;;6.23;;
7179;SDS011;3631;42.152;24.756;2024-01-16T07:23:42;7.77;;;5.97;;
7179;SDS011;3631;42.152;24.756;2024-01-16T07:26:09;8.53;;;5.97;;
7179;SDS011;3631;42.152;24.756;2024-01-16T07:28:36;7.20;;;5.87;;
7179;SDS011;3631;42.152;24.756;2024-01-16T07:31:03;10.30;;;6.43;;
7179;SDS011;3631;42.152;24.756;2024-01-16T07:33:32;7.40;;;5.80;;
7179;SDS011;3631;42.152;24.756;2024-01-16T07:35:58;6.50;;;5.80;;
7179;SDS011;3631;42.152;24.756;2024-01-16T07:38:25;7.03;;;5.43;;
7179;SDS011;3631;42.152;24.756;2024-01-16T07:40:52;12.10;;;5.47;;
7179;SDS011;3631;42.152;24.756;2024-01-16T07:43:21;8.87;;;5.90;;
7179;SDS011;3631;42.152;24.756;2024-01-16T07:45:48;6.40;;;5.47;;
7179;SDS011;3631;42.152;24.756;2024-01-16T07:48:15;6.33;;;5.73;;
7179;SDS011;3631;42.152;24.756;2024-01-16T07:50:43;6.77;;;5.70;;
7179;SDS011;3631;42.152;24.756;2024-01-16T07:53:11;8.93;;;6.37;;
7179;SDS011;3631;42.152;24.756;2024-01-16T07:55:37;6.37;;;5.70;;
7179;SDS011;3631;42.152;24.756;2024-01-16T07:58:04;9.17;;;5.90;;
7179;SDS011;3631;42.152;24.756;2024-01-16T08:00:31;9.67;;;5.90;;
7179;SDS011;3631;42.152;24.756;2024-01-16T08:02:58;10.17;;;6.47;;
7179;SDS011;3631;42.152;24.756;2024-01-16T08:05:25;7.60;;;6.27;;
7179;SDS011;3631;42.152;24.756;2024-01-16T08:07:54;8.40;;;6.33;;
7179;SDS011;3631;42.152;24.756;2024-01-16T08:10:21;8.47;;;5.70;;
7179;SDS011;3631;42.152;24.756;2024-01-16T08:12:48;13.70;;;6.27;;
7179;SDS011;3631;42.152;24.756;2024-01-16T08:15:15;8.97;;;4.93;;
7179;SDS011;3631;42.152;24.756;2024-01-16T08:17:41;5.40;;;4.90;;
7179;SDS011;3631;42.152;24.756;2024-01-16T08:20:09;7.87;;;4.90;;
7179;SDS011;3631;42.152;24.756;2024-01-16T08:22:36;7.07;;;4.70;;
7179;SDS011;3631;42.152;24.756;2024-01-16T08:25:05;5.23;;;4.83;;
7179;SDS011;3631;42.152;24.756;2024-01-16T08:27:33;5.40;;;4.13;;
7179;SDS011;3631;42.152;24.756;2024-01-16T08:30:02;8.10;;;4.40;;
7179;SDS011;3631;42.152;24.756;2024-01-16T08:32:32;7.40;;;4.87;;
7179;SDS011;3631;42.152;24.756;2024-01-16T08:34:59;6.23;;;4.87;;
7179;SDS011;3631;42.152;24.756;2024-01-16T08:37:26;5.47;;;4.93;;
7179;SDS011;3631;42.152;24.756;2024-01-16T08:39:53;5.57;;;5.10;;
7179;SDS011;3631;42.152;24.756;2024-01-16T08:42:21;5.20;;;4.70;;
7179;SDS011;3631;42.152;24.756;2024-01-16T08:44:48;6.23;;;4.80;;
7179;SDS011;3631;42.152;24.756;2024-01-16T08:47:15;11.00;;;3.97;;
7179;SDS011;3631;42.152;24.756;2024-01-16T08:49:42;9.37;;;3.67;;
7179;SDS011;3631;42.152;24.756;2024-01-16T08:52:08;7.83;;;4.73;;
7179;SDS011;3631;42.152;24.756;2024-01-16T08:54:36;4.17;;;3.77;;
7179;SDS011;3631;42.152;24.756;2024-01-16T08:57:03;4.50;;;4.10;;
7179;SDS011;3631;42.152;24.756;2024-01-16T08:59:32;4.80;;;4.33;;
7179;SDS011;3631;42.152;24.756;2024-01-16T09:01:59;4.67;;;4.17;;
7179;SDS011;3631;42.152;24.756;2024-01-16T09:04:25;4.40;;;4.00;;
7179;SDS011;3631;42.152;24.756;2024-01-16T09:06:52;7.07;;;4.13;;
7179;SDS011;3631;42.152;24.756;2024-01-16T09:09:19;8.33;;;4.80;;
7179;SDS011;3631;42.152;24.756;2024-01-16T09:11:46;5.93;;;3.83;;
7179;SDS011;3631;42.152;24.756;2024-01-16T09:14:13;5.93;;;4.40;;
7179;SDS011;3631;42.152;24.756;2024-01-16T09:16:41;8.47;;;3.93;;
7179;SDS011;3631;42.152;24.756;2024-01-16T09:19:08;8.37;;;3.93;;
7179;SDS011;3631;42.152;24.756;2024-01-16T09:21:35;4.70;;;4.20;;
7179;SDS011;3631;42.152;24.756;2024-01-16T09:24:03;5.00;;;3.57;;
7179;SDS011;3631;42.152;24.756;2024-01-16T09:26:30;3.77;;;3.20;;
7179;SDS011;3631;42.152;24.756;2024-01-16T09:28:57;5.73;;;3.10;;
7179;SDS011;3631;42.152;24.756;2024-01-16T09:31:24;3.53;;;2.57;;
7179;SDS011;3631;42.152;24.756;2024-01-16T09:33:52;7.30;;;2.83;;
7179;SDS011;3631;42.152;24.756;2024-01-16T09:36:19;3.67;;;2.60;;
7179;SDS011;3631;42.152;24.756;2024-01-16T09:38:46;9.00;;;3.30;;
7179;SDS011;3631;42.152;24.756;2024-01-16T09:41:13;3.40;;;3.00;;
7179;SDS011;3631;42.152;24.756;2024-01-16T09:43:40;4.33;;;2.80;;
7179;SDS011;3631;42.152;24.756;2024-01-16T09:46:07;5.23;;;3.07;;
7179;SDS011;3631;42.152;24.756;2024-01-16T09:48:35;10.03;;;3.27;;
7179;SDS011;3631;42.152;24.756;2024-01-16T09:51:04;6.67;;;2.80;;
7179;SDS011;3631;42.152;24.756;2024-01-16T09:53:31;5.30;;;2.77;;
7179;SDS011;3631;42.152;24.756;2024-01-16T09:55:59;5.83;;;2.90;;
7179;SDS011;3631;42.152;24.756;2024-01-16T09:58:30;6.00;;;3.10;;
7179;SDS011;3631;42.152;24.756;2024-01-16T10:01:02;5.20;;;2.90;;
7179;SDS011;3631;42.152;24.756;2024-01-16T10:03:30;5.03;;;2.57;;
7179;SDS011;3631;42.152;24.756;2024-01-16T10:05:57;2.67;;;2.07;;
7179;SDS011;3631;42.152;24.756;2024-01-16T10:08:29;14.00;;;3.00;;
7179;SDS011;3631;42.152;24.756;2024-01-16T10:10:57;10.80;;;2.50;;
7179;SDS011;3631;42.152;24.756;2024-01-16T10:13:24;6.57;;;2.50;;
7179;SDS011;3631;42.152;24.756;2024-01-16T10:15:51;5.47;;;2.93;;
7179;SDS011;3631;42.152;24.756;2024-01-16T10:18:23;9.30;;;3.83;;
7179;SDS011;3631;42.152;24.756;2024-01-16T10:20:51;4.77;;;3.03;;
7179;SDS011;3631;42.152;24.756;2024-01-16T10:23:22;9.77;;;2.83;;
7179;SDS011;3631;42.152;24.756;2024-01-16T10:28:45;5.93;;;2.93;;
7179;SDS011;3631;42.152;24.756;2024-01-16T10:31:13;21.83;;;3.53;;
7179;SDS011;3631;42.152;24.756;2024-01-16T10:33:40;7.57;;;2.50;;
7179;SDS011;3631;42.152;24.756;2024-01-16T10:36:07;2.60;;;2.40;;
7179;SDS011;3631;42.152;24.756;2024-01-16T10:38:36;4.23;;;2.47;;
7179;SDS011;3631;42.152;24.756;2024-01-16T10:41:04;13.97;;;2.70;;
7179;SDS011;3631;42.152;24.756;2024-01-16T10:43:32;17.47;;;3.83;;
7179;SDS011;3631;42.152;24.756;2024-01-16T10:46:07;3.00;;;2.80;;
7179;SDS011;3631;42.152;24.756;2024-01-16T10:48:36;8.30;;;3.20;;
7179;SDS011;3631;42.152;24.756;2024-01-16T10:51:05;7.50;;;3.00;;
7179;SDS011;3631;42.152;24.756;2024-01-16T10:53:33;4.23;;;2.67;;
7179;SDS011;3631;42.152;24.756;2024-01-16T10:56:01;4.33;;;2.60;;
7179;SDS011;3631;42.152;24.756;2024-01-16T10:58:32;25.43;;;4.70;;
7179;SDS011;3631;42.152;24.756;2024-01-16T11:01:01;10.43;;;3.10;;
7179;SDS011;3631;42.152;24.756;2024-01-16T11:03:34;4.23;;;3.00;;
7179;SDS011;3631;42.152;24.756;2024-01-16T11:06:05;4.40;;;2.93;;
7179;SDS011;3631;42.152;24.756;2024-01-16T11:08:35;5.50;;;2.27;;
7179;SDS011;3631;42.152;24.756;2024-01-16T11:11:03;8.43;;;2.80;;
7179;SDS011;3631;42.152;24.756;2024-01-16T11:13:31;3.57;;;2.87;;
7179;SDS011;3631;42.152;24.756;2024-01-16T11:16:00;10.63;;;3.50;;
7179;SDS011;3631;42.152;24.756;2024-01-16T11:18:28;4.43;;;3.33;;
7179;SDS011;3631;42.152;24.756;2024-01-16T11:20:58;12.17;;;3.57;;
7179;SDS011;3631;42.152;24.756;2024-01-16T11:23:27;5.03;;;2.37;;
7179;SDS011;3631;42.152;24.756;2024-01-16T11:25:54;4.23;;;2.63;;
7179;SDS011;3631;42.152;24.756;2024-01-16T11:28:21;7.50;;;2.30;;
7179;SDS011;3631;42.152;24.756;2024-01-16T11:30:54;4.67;;;2.77;;
7179;SDS011;3631;42.152;24.756;2024-01-16T11:39:16;4.77;;;2.93;;
7179;SDS011;3631;42.152;24.756;2024-01-16T11:41:48;14.37;;;3.27;;
7179;SDS011;3631;42.152;24.756;2024-01-16T11:44:38;9.07;;;2.83;;
7179;SDS011;3631;42.152;24.756;2024-01-16T11:47:09;4.53;;;2.77;;
7179;SDS011;3631;42.152;24.756;2024-01-16T11:49:41;4.07;;;3.40;;
7179;SDS011;3631;42.152;24.756;2024-01-16T11:52:09;7.27;;;4.20;;
7179;SDS011;3631;42.152;24.756;2024-01-16T11:54:38;5.47;;;3.57;;
7179;SDS011;3631;42.152;24.756;2024-01-16T12:00:02;9.43;;;3.03;;
7179;SDS011;3631;42.152;24.756;2024-01-16T12:02:51;5.17;;;2.67;;
7179;SDS011;3631;42.152;24.756;2024-01-16T12:05:20;6.10;;;3.20;;
7179;SDS011;3631;42.152;24.756;2024-01-16T12:07:48;7.80;;;3.23;;
7179;SDS011;3631;42.152;24.756;2024-01-16T12:10:18;5.37;;;4.03;;
7179;SDS011;3631;42.152;24.756;2024-01-16T12:12:46;5.57;;;3.20;;
7179;SDS011;3631;42.152;24.756;2024-01-16T12:15:15;9.73;;;3.50;;
7179;SDS011;3631;42.152;24.756;2024-01-16T12:17:56;3.73;;;2.87;;
7179;SDS011;3631;42.152;24.756;2024-01-16T12:20:24;9.67;;;2.70;;
7179;SDS011;3631;42.152;24.756;2024-01-16T12:22:57;5.27;;;2.47;;
7179;SDS011;3631;42.152;24.756;2024-01-16T12:25:25;6.87;;;2.30;;
7179;SDS011;3631;42.152;24.756;2024-01-16T12:27:56;8.13;;;2.70;;
7179;SDS011;3631;42.152;24.756;2024-01-16T12:30:27;5.43;;;2.77;;
7179;SDS011;3631;42.152;24.756;2024-01-16T12:33:05;3.37;;;2.40;;
7179;SDS011;3631;42.152;24.756;2024-01-16T12:35:36;7.03;;;2.10;;
7179;SDS011;3631;42.152;24.756;2024-01-16T12:38:06;4.00;;;1.87;;
7179;SDS011;3631;42.152;24.756;2024-01-16T12:40:34;2.60;;;2.40;;
7179;SDS011;3631;42.152;24.756;2024-01-16T12:43:02;5.73;;;2.60;;
7179;SDS011;3631;42.152;24.756;2024-01-16T12:45:30;3.93;;;2.00;;
7179;SDS011;3631;42.152;24.756;2024-01-16T12:47:57;5.37;;;3.40;;
7179;SDS011;3631;42.152;24.756;2024-01-16T12:50:26;3.97;;;1.93;;
7179;SDS011;3631;42.152;24.756;2024-01-16T12:53:01;10.40;;;2.93;;
7179;SDS011;3631;42.152;24.756;2024-01-16T12:55:31;4.50;;;2.17;;
7179;SDS011;3631;42.152;24.756;2024-01-16T12:58:14;4.10;;;2.10;;
7179;SDS011;3631;42.152;24.756;2024-01-16T13:00:41;2.87;;;2.60;;
7179;SDS011;3631;42.152;24.756;2024-01-16T13:03:14;2.53;;;2.33;;
7179;SDS011;3631;42.152;24.756;2024-01-16T13:05:42;6.07;;;2.67;;
7179;SDS011;3631;42.152;24.756;2024-01-16T13:08:16;2.30;;;2.10;;
7179;SDS011;3631;42.152;24.756;2024-01-16T13:10:46;7.80;;;2.80;;
7179;SDS011;3631;42.152;24.756;2024-01-16T13:13:16;3.87;;;2.50;;
7179;SDS011;3631;42.152;24.756;2024-01-16T13:15:45;11.33;;;2.77;;
7179;SDS011;3631;42.152;24.756;2024-01-16T13:18:18;6.53;;;1.93;;
7179;SDS011;3631;42.152;24.756;2024-01-16T13:20:47;2.77;;;2.33;;
7179;SDS011;3631;42.152;24.756;2024-01-16T13:23:14;3.00;;;2.00;;
7179;SDS011;3631;42.152;24.756;2024-01-16T13:25:42;3.90;;;1.57;;
7179;SDS011;3631;42.152;24.756;2024-01-16T13:28:12;2.30;;;1.90;;
7179;SDS011;3631;42.152;24.756;2024-01-16T13:30:39;3.43;;;2.13;;
7179;SDS011;3631;42.152;24.756;2024-01-16T13:33:06;2.50;;;2.23;;
7179;SDS011;3631;42.152;24.756;2024-01-16T13:35:34;2.57;;;2.33;;
7179;SDS011;3631;42.152;24.756;2024-01-16T13:38:02;5.60;;;2.20;;
7179;SDS011;3631;42.152;24.756;2024-01-16T13:40:30;5.67;;;2.53;;
7179;SDS011;3631;42.152;24.756;2024-01-16T13:42:57;7.57;;;2.50;;
7179;SDS011;3631;42.152;24.756;2024-01-16T13:45:26;8.07;;;2.70;;
7179;SDS011;3631;42.152;24.756;2024-01-16T13:47:53;4.43;;;2.10;;
7179;SDS011;3631;42.152;24.756;2024-01-16T13:50:21;5.43;;;2.40;;
7179;SDS011;3631;42.152;24.756;2024-01-16T13:52:49;2.73;;;2.27;;
7179;SDS011;3631;42.152;24.756;2024-01-16T13:55:17;4.47;;;2.00;;
7179;SDS011;3631;42.152;24.756;2024-01-16T13:57:44;2.80;;;2.00;;
7179;SDS011;3631;42.152;24.756;2024-01-16T14:00:12;5.13;;;2.10;;
7179;SDS011;3631;42.152;24.756;2024-01-16T14:02:42;11.27;;;2.50;;
7179;SDS011;3631;42.152;24.756;2024-01-16T14:05:10;3.27;;;2.00;;
7179;SDS011;3631;42.152;24.756;2024-01-16T14:07:40;2.17;;;1.90;;
7179;SDS011;3631;42.152;24.756;2024-01-16T14:10:07;2.33;;;2.13;;
7179;SDS011;3631;42.152;24.756;2024-01-16T14:12:37;3.57;;;2.40;;
7179;SDS011;3631;42.152;24.756;2024-01-16T14:15:04;2.60;;;2.40;;
7179;SDS011;3631;42.152;24.756;2024-01-16T14:17:42;2.97;;;2.77;;
7179;SDS011;3631;42.152;24.756;2024-01-16T14:20:10;5.10;;;3.13;;
7179;SDS011;3631;42.152;24.756;2024-01-16T14:22:38;6.83;;;2.83;;
7179;SDS011;3631;42.152;24.756;2024-01-16T14:25:06;2.33;;;2.13;;
7179;SDS011;3631;42.152;24.756;2024-01-16T14:27:36;7.50;;;2.43;;
7179;SDS011;3631;42.152;24.756;2024-01-16T14:30:05;15.20;;;2.43;;
7179;SDS011;3631;42.152;24.756;2024-01-16T14:32:35;2.90;;;2.53;;
7179;SDS011;3631;42.152;24.756;2024-01-16T14:35:06;3.53;;;2.83;;
7179;SDS011;3631;42.152;24.756;2024-01-16T14:37:34;3.73;;;2.37;;
7179;SDS011;3631;42.152;24.756;2024-01-16T14:40:02;4.60;;;2.70;;
7179;SDS011;3631;42.152;24.756;2024-01-16T14:42:33;4.10;;;2.27;;
7179;SDS011;3631;42.152;24.756;2024-01-16T14:45:00;12.87;;;3.07;;
7179;SDS011;3631;42.152;24.756;2024-01-16T14:47:27;2.20;;;2.00;;
7179;SDS011;3631;42.152;24.756;2024-01-16T14:49:54;2.13;;;1.93;;
7179;SDS011;3631;42.152;24.756;2024-01-16T14:52:23;3.43;;;1.90;;
7179;SDS011;3631;42.152;24.756;2024-01-16T14:54:49;4.93;;;2.13;;
7179;SDS011;3631;42.152;24.756;2024-01-16T14:57:17;5.90;;;2.43;;
7179;SDS011;3631;42.152;24.756;2024-01-16T14:59:44;2.77;;;2.23;;
7179;SDS011;3631;42.152;24.756;2024-01-16T15:02:11;4.50;;;2.50;;
7179;SDS011;3631;42.152;24.756;2024-01-16T15:04:39;3.50;;;2.13;;